Time;durP1;ratioP1;P1;durP2;ratioP2;P2;SDS_P1;SDS_P2;PMS_P1;PMS_P2;Temp;Humidity;BMP_temperature;BMP_pressure;BME280_temperature;BME280_humidity;BME280_pressure;Samples;Min_cycle;Max_cycle;Signal;HPM_P1;HPM_P2
2022/05/09 00:01:40;;;;;;;14.43;12.97;;;15.00;99.90;;;;;;5118195;28;20435;-80
2022/05/09 00:04:08;;;;;;;12.67;11.47;;;15.00;99.90;;;;;;5111063;28;20450;-82
2022/05/09 00:06:35;;;;;;;14.00;12.70;;;14.90;99.90;;;;;;5106278;28;20453;-82
2022/05/09 00:09:02;;;;;;;13.00;11.80;;;14.80;99.90;;;;;;5106606;28;20457;-81
2022/05/09 00:11:29;;;;;;;15.57;14.17;;;14.80;99.90;;;;;;5096262;28;20449;-81
2022/05/09 00:13:55;;;;;;;14.73;13.07;;;14.70;99.90;;;;;;5098553;28;20519;-83
2022/05/09 00:16:22;;;;;;;12.27;11.17;;;14.70;99.90;;;;;;5095009;28;20798;-81
2022/05/09 00:18:50;;;;;;;13.47;12.30;;;14.60;99.90;;;;;;5094820;28;20471;-81
2022/05/09 00:21:18;;;;;;;13.20;12.07;;;14.50;99.90;;;;;;5094759;28;20495;-81
2022/05/09 00:23:45;;;;;;;15.33;13.93;;;14.40;99.90;;;;;;5094948;28;20884;-83
2022/05/09 00:26:11;;;;;;;13.30;12.10;;;14.30;99.90;;;;;;5101269;28;20455;-82
2022/05/09 00:28:38;;;;;;;15.80;14.40;;;14.20;99.90;;;;;;5101765;28;20443;-82
2022/05/09 00:31:05;;;;;;;13.20;12.07;;;14.20;99.90;;;;;;5094926;28;20442;-82
2022/05/09 00:33:32;;;;;;;14.00;12.63;;;14.10;99.90;;;;;;5095336;28;20469;-81
2022/05/09 00:35:58;;;;;;;14.80;13.50;;;14.10;99.90;;;;;;5101603;28;20446;-81
2022/05/09 00:38:28;;;;;;;14.30;13.03;;;14.10;99.90;;;;;;5097924;28;20440;-82
2022/05/09 00:43:40;;;;;;;13.70;12.50;;;14.10;99.90;;;;;;5095577;28;20560;-83
2022/05/09 00:46:08;;;;;;;14.23;13.03;;;14.10;99.90;;;;;;5095205;28;20450;-82
2022/05/09 00:48:35;;;;;;;15.07;13.57;;;14.10;99.90;;;;;;5095406;28;20563;-83
2022/05/09 00:51:03;;;;;;;13.00;12.00;;;14.20;99.90;;;;;;5095359;28;20510;-81
2022/05/09 00:53:33;;;;;;;13.53;12.40;;;14.20;99.90;;;;;;5102753;28;20842;-82
2022/05/09 00:56:02;;;;;;;13.67;12.47;;;14.20;99.90;;;;;;5102054;28;20496;-81
2022/05/09 00:58:36;;;;;;;14.33;12.80;;;14.10;99.90;;;;;;5101788;28;20440;-82
2022/05/09 01:01:04;;;;;;;13.73;12.60;;;14.10;99.90;;;;;;5103030;28;20494;-81
2022/05/09 01:03:36;;;;;;;13.67;12.57;;;14.10;99.90;;;;;;5114068;28;20462;-81
2022/05/09 01:06:03;;;;;;;14.37;13.03;;;14.00;99.90;;;;;;5094834;28;20478;-80
2022/05/09 01:08:33;;;;;;;13.67;12.47;;;14.00;99.90;;;;;;5096357;28;20441;-83
2022/05/09 01:11:03;;;;;;;13.57;12.27;;;14.00;99.90;;;;;;5094384;28;20824;-83
2022/05/09 01:13:33;;;;;;;14.37;13.17;;;13.90;99.90;;;;;;5094207;28;20477;-82
2022/05/09 01:16:01;;;;;;;15.43;14.03;;;13.90;99.90;;;;;;5096333;28;20823;-80
2022/05/09 01:18:28;;;;;;;15.07;13.60;;;13.80;99.90;;;;;;5095191;28;20482;-80
2022/05/09 01:20:55;;;;;;;14.37;13.07;;;13.80;99.90;;;;;;5095506;28;20484;-80
2022/05/09 01:23:24;;;;;;;15.33;13.83;;;13.70;99.90;;;;;;5102997;28;20988;-82
2022/05/09 01:25:52;;;;;;;16.90;13.93;;;13.80;99.90;;;;;;5105915;28;20449;-82
2022/05/09 01:28:19;;;;;;;16.13;14.73;;;13.70;99.90;;;;;;5097114;28;20449;-83
2022/05/09 01:30:54;;;;;;;13.63;12.47;;;13.60;99.90;;;;;;5097789;28;20441;-80
2022/05/09 01:33:25;;;;;;;14.80;13.50;;;13.60;99.90;;;;;;5094335;28;20468;-82
2022/05/09 01:35:58;;;;;;;14.03;12.73;;;13.60;99.90;;;;;;5094557;28;20442;-84
2022/05/09 01:38:31;;;;;;;15.60;14.13;;;13.60;99.90;;;;;;5095058;28;20449;-82
2022/05/09 01:40:58;;;;;;;14.40;12.80;;;13.50;99.90;;;;;;5101886;28;20476;-80
2022/05/09 01:43:34;;;;;;;14.73;13.43;;;13.50;99.90;;;;;;5104311;28;20474;-81
2022/05/09 01:46:01;;;;;;;15.17;13.77;;;13.60;99.90;;;;;;5094258;28;20483;-81
2022/05/09 01:51:12;;;;;;;15.80;14.50;;;13.60;99.90;;;;;;5094618;28;20507;-82
2022/05/09 01:53:40;;;;;;;15.53;14.13;;;13.50;99.90;;;;;;5094369;28;20993;-82
2022/05/09 01:56:07;;;;;;;16.00;14.50;;;13.50;99.90;;;;;;5097329;28;20445;-81
2022/05/09 01:58:34;;;;;;;15.67;14.37;;;13.50;99.90;;;;;;5100312;28;20956;-82
2022/05/09 02:01:01;;;;;;;15.00;13.60;;;13.50;99.90;;;;;;5097660;28;20485;-81
2022/05/09 02:03:29;;;;;;;15.23;13.93;;;13.50;99.90;;;;;;5104599;28;20463;-81
2022/05/09 02:05:55;;;;;;;16.80;15.20;;;13.40;99.90;;;;;;5095695;28;20447;-82
2022/05/09 02:08:22;;;;;;;15.67;14.40;;;13.40;99.90;;;;;;5098020;28;20532;-81
2022/05/09 02:10:50;;;;;;;17.03;15.43;;;13.30;99.90;;;;;;5099658;28;20438;-80
2022/05/09 02:13:17;;;;;;;15.90;14.40;;;13.40;99.90;;;;;;5099864;28;20465;-80
2022/05/09 02:15:43;;;;;;;16.50;14.93;;;13.40;99.90;;;;;;5098289;28;20450;-83
2022/05/09 02:18:10;;;;;;;16.37;14.97;;;13.40;99.90;;;;;;5104224;28;20486;-81
2022/05/09 02:20:37;;;;;;;15.57;14.27;;;13.30;99.90;;;;;;5101623;28;20497;-80
2022/05/09 02:23:04;;;;;;;15.67;14.33;;;13.30;99.90;;;;;;5100240;28;20462;-79
2022/05/09 02:25:31;;;;;;;15.70;14.40;;;13.10;99.90;;;;;;5100784;28;20458;-80
2022/05/09 02:28:01;;;;;;;17.37;15.87;;;13.00;99.90;;;;;;5099955;28;20443;-83
2022/05/09 02:30:29;;;;;;;15.23;13.80;;;13.10;99.90;;;;;;5098221;28;20437;-83
2022/05/09 02:32:56;;;;;;;15.53;14.20;;;13.20;99.90;;;;;;5097409;28;20887;-83
2022/05/09 02:35:23;;;;;;;17.40;15.90;;;13.20;99.90;;;;;;5097264;28;20442;-82
2022/05/09 02:37:51;;;;;;;17.40;15.70;;;13.20;99.90;;;;;;5099698;28;20454;-83
2022/05/09 02:40:19;;;;;;;15.10;13.83;;;13.10;99.90;;;;;;5098864;28;20489;-83
2022/05/09 02:42:45;;;;;;;16.10;14.30;;;13.20;99.90;;;;;;5098865;28;20939;-82
2022/05/09 02:45:14;;;;;;;15.80;14.40;;;13.20;99.90;;;;;;5094875;22;20494;-88
2022/05/09 02:47:41;;;;;;;15.87;14.37;;;13.10;99.90;;;;;;5074586;28;20441;-88
2022/05/09 02:50:10;;;;;;;16.23;14.67;;;13.00;99.90;;;;;;5075843;28;20936;-87
2022/05/09 02:52:37;;;;;;;15.67;14.27;;;12.90;99.90;;;;;;5096934;28;20426;-88
2022/05/09 02:55:05;;;;;;;16.87;15.40;;;12.90;99.90;;;;;;5092260;28;20467;-87
2022/05/09 02:57:32;;;;;;;16.60;14.97;;;12.80;99.90;;;;;;5084639;28;20449;-87
2022/05/09 02:59:59;;;;;;;15.37;14.00;;;12.70;99.90;;;;;;5098089;28;20458;-87
2022/05/09 03:02:27;;;;;;;16.83;15.27;;;12.70;99.90;;;;;;5078496;28;20436;-88
2022/05/09 03:04:52;;;;;;;16.77;15.37;;;12.70;99.90;;;;;;5074877;28;20475;-88
2022/05/09 03:07:20;;;;;;;18.10;16.50;;;12.70;99.90;;;;;;5075283;28;20805;-88
2022/05/09 03:09:49;;;;;;;18.03;16.40;;;12.70;99.90;;;;;;5093790;28;20204;-88
2022/05/09 03:12:19;;;;;;;17.73;16.13;;;12.70;99.90;;;;;;5089656;28;20803;-88
2022/05/09 03:14:47;;;;;;;19.13;15.97;;;12.70;99.90;;;;;;5077746;28;20521;-87
2022/05/09 03:17:15;;;;;;;16.93;15.33;;;12.60;99.90;;;;;;5082673;28;20463;-88
2022/05/09 03:19:44;;;;;;;16.57;14.87;;;12.50;99.90;;;;;;5083781;28;20442;-88
2022/05/09 03:22:10;;;;;;;16.90;15.10;;;12.50;99.90;;;;;;5077687;28;20483;-88
2022/05/09 03:24:37;;;;;;;16.90;15.30;;;12.50;99.90;;;;;;5074371;28;20463;-88
2022/05/09 03:27:06;;;;;;;17.10;15.50;;;12.40;99.90;;;;;;5074404;28;20501;-88
2022/05/09 03:29:34;;;;;;;18.30;16.57;;;12.40;99.90;;;;;;5074565;28;20455;-87
2022/05/09 03:32:00;;;;;;;15.80;14.40;;;12.40;99.90;;;;;;5084606;28;20440;-88
2022/05/09 03:34:28;;;;;;;17.10;15.60;;;12.30;99.90;;;;;;5094401;28;20460;-87
2022/05/09 03:36:56;;;;;;;20.57;18.30;;;12.30;99.90;;;;;;5085725;28;20523;-88
2022/05/09 03:39:23;;;;;;;16.60;15.30;;;12.30;99.90;;;;;;5092811;28;20470;-88
2022/05/09 03:41:50;;;;;;;20.10;18.30;;;12.30;99.90;;;;;;5087205;28;20984;-88
2022/05/09 03:44:20;;;;;;;18.87;16.90;;;12.30;99.90;;;;;;5086340;28;20475;-88
2022/05/09 03:46:47;;;;;;;16.97;15.47;;;12.30;99.90;;;;;;5095712;28;20442;-88
2022/05/09 03:49:14;;;;;;;16.93;15.33;;;12.30;99.90;;;;;;5096046;28;20456;-87
2022/05/09 03:51:41;;;;;;;17.67;16.17;;;12.30;99.90;;;;;;5092211;28;20455;-88
2022/05/09 03:54:09;;;;;;;17.40;15.87;;;12.40;99.90;;;;;;5077199;28;20548;-88
2022/05/09 03:56:35;;;;;;;17.53;16.10;;;12.40;99.90;;;;;;5074913;28;20448;-88
2022/05/09 03:59:02;;;;;;;18.80;17.03;;;12.40;99.90;;;;;;5076581;28;20439;-87
2022/05/09 04:01:29;;;;;;;16.73;15.23;;;12.40;99.90;;;;;;5075693;28;20844;-88
2022/05/09 04:03:56;;;;;;;17.77;16.17;;;12.40;99.90;;;;;;5073674;28;20970;-87
2022/05/09 04:06:22;;;;;;;17.37;15.97;;;12.30;99.90;;;;;;5073362;28;20457;-88
2022/05/09 04:08:49;;;;;;;17.50;15.80;;;12.30;99.90;;;;;;5073693;28;20447;-88
2022/05/09 04:11:17;;;;;;;17.33;15.83;;;12.40;99.90;;;;;;5093984;28;20440;-88
2022/05/09 04:13:44;;;;;;;19.57;17.87;;;12.40;99.90;;;;;;5089110;28;20476;-88
2022/05/09 04:18:59;;;;;;;17.40;15.77;;;12.40;99.90;;;;;;5073734;28;20438;-87
2022/05/09 04:21:27;;;;;;;16.20;14.60;;;12.40;99.90;;;;;;5073336;28;20926;-88
2022/05/09 04:23:56;;;;;;;18.13;16.30;;;12.50;99.90;;;;;;5073414;28;20455;-88
2022/05/09 04:26:24;;;;;;;18.63;16.93;;;12.50;99.90;;;;;;5073033;28;20448;-88
2022/05/09 04:28:51;;;;;;;18.47;16.77;;;12.50;99.90;;;;;;5072417;28;20479;-88
2022/05/09 04:31:19;;;;;;;17.63;15.97;;;12.50;99.90;;;;;;5072978;28;20962;-88
2022/05/09 04:33:46;;;;;;;17.80;16.10;;;12.50;99.90;;;;;;5088892;28;20462;-88
2022/05/09 04:36:13;;;;;;;18.97;17.27;;;12.50;99.90;;;;;;5078251;28;20436;-88
2022/05/09 04:38:42;;;;;;;20.10;16.47;;;12.60;99.90;;;;;;5073449;28;20959;-88
2022/05/09 04:41:10;;;;;;;19.97;18.17;;;12.70;99.90;;;;;;5073964;28;20484;-88
2022/05/09 04:43:38;;;;;;;18.00;16.40;;;12.70;99.90;;;;;;5073441;28;21021;-88
2022/05/09 04:46:06;;;;;;;17.50;16.00;;;12.70;99.90;;;;;;5091097;28;20450;-88
2022/05/09 04:48:33;;;;;;;17.60;16.03;;;12.80;99.90;;;;;;5094836;28;20451;-88
2022/05/09 04:51:00;;;;;;;18.07;16.33;;;12.90;99.90;;;;;;5089886;28;20439;-88
2022/05/09 04:53:27;;;;;;;17.90;16.30;;;12.80;99.90;;;;;;5093604;28;20451;-88
2022/05/09 04:55:56;;;;;;;17.00;15.50;;;13.00;99.90;;;;;;5086642;28;20455;-88
2022/05/09 04:58:23;;;;;;;18.17;16.50;;;13.10;99.90;;;;;;5075494;28;20458;-87
2022/05/09 05:00:51;;;;;;;17.40;15.90;;;13.40;99.90;;;;;;5075528;28;20480;-88
2022/05/09 05:03:18;;;;;;;16.70;15.20;;;13.80;99.90;;;;;;5093649;28;20429;-88
2022/05/09 05:05:45;;;;;;;16.07;14.77;;;14.20;99.90;;;;;;5094092;28;20450;-88
2022/05/09 05:08:13;;;;;;;16.13;14.73;;;14.70;99.90;;;;;;5073724;28;20463;-88
2022/05/09 05:10:41;;;;;;;15.67;14.37;;;15.10;99.90;;;;;;5073746;28;20451;-88
2022/05/09 05:13:10;;;;;;;16.13;14.67;;;15.50;99.90;;;;;;5073512;28;20866;-88
2022/05/09 05:15:37;;;;;;;17.37;15.63;;;16.00;99.90;;;;;;5073569;28;20459;-88
2022/05/09 05:18:05;;;;;;;16.57;15.00;;;16.30;99.90;;;;;;5073380;28;20549;-88
2022/05/09 05:20:32;;;;;;;16.67;15.30;;;16.70;99.90;;;;;;5075222;28;20534;-88
2022/05/09 05:22:59;;;;;;;14.77;13.53;;;17.00;99.90;;;;;;5075920;28;20458;-89
2022/05/09 05:25:28;;;;;;;15.07;13.77;;;17.30;99.90;;;;;;5077469;28;20473;-88
2022/05/09 05:27:55;;;;;;;15.07;13.70;;;17.70;99.40;;;;;;5075350;28;20445;-88
2022/05/09 05:30:22;;;;;;;15.43;14.03;;;18.20;98.70;;;;;;5088697;28;20455;-88
2022/05/09 05:32:50;;;;;;;17.13;12.83;;;18.50;97.40;;;;;;5096826;28;20432;-88
2022/05/09 05:35:21;;;;;;;15.43;14.23;;;18.80;96.30;;;;;;5095516;28;20491;-88
2022/05/09 05:37:48;;;;;;;16.50;15.10;;;18.90;95.70;;;;;;5089483;28;20457;-89
2022/05/09 05:40:16;;;;;;;14.13;13.13;;;19.50;95.30;;;;;;5088362;28;20461;-89
2022/05/09 05:42:43;;;;;;;15.50;14.30;;;19.80;93.90;;;;;;5089916;28;20478;-86
2022/05/09 05:45:12;;;;;;;16.80;15.30;;;20.10;93.10;;;;;;5097459;28;20459;-87
2022/05/09 05:47:39;;;;;;;15.27;13.87;;;20.20;92.30;;;;;;5079259;28;20442;-88
2022/05/09 05:50:09;;;;;;;15.53;14.03;;;20.70;92.10;;;;;;5080698;28;20454;-87
2022/05/09 05:52:37;;;;;;;15.00;13.70;;;20.90;91.20;;;;;;5077575;28;20961;-88
2022/05/09 05:55:05;;;;;;;14.60;13.53;;;21.00;90.50;;;;;;5077393;28;20468;-88
2022/05/09 05:57:34;;;;;;;14.37;13.13;;;21.20;90.00;;;;;;5078838;28;20440;-87
2022/05/09 06:00:05;;;;;;;14.93;13.43;;;21.60;89.60;;;;;;5097425;28;20444;-87
2022/05/09 06:02:32;;;;;;;13.47;12.57;;;21.90;87.10;;;;;;5097499;28;20474;-88
2022/05/09 06:04:59;;;;;;;15.90;14.40;;;22.00;85.70;;;;;;5092028;28;20462;-88
2022/05/09 06:07:26;;;;;;;14.50;13.30;;;22.20;84.80;;;;;;5081792;28;20458;-88
2022/05/09 06:09:54;;;;;;;15.37;13.83;;;22.50;83.90;;;;;;5079784;28;20445;-88
2022/05/09 06:12:23;;;;;;;14.60;13.30;;;22.70;82.00;;;;;;5082715;28;20446;-88
2022/05/09 06:15:24;;;;;;;14.30;13.10;;;22.70;81.40;;;;;;5081023;28;20467;-89
2022/05/09 06:17:37;;;;;;;14.40;13.30;;;22.90;80.80;;;;;;5082064;28;20458;-88
2022/05/09 06:20:05;;;;;;;14.00;13.00;;;23.10;80.00;;;;;;5096022;28;20437;-88
2022/05/09 06:22:32;;;;;;;12.93;12.03;;;23.40;79.10;;;;;;5079356;28;20479;-89
2022/05/09 06:25:02;;;;;;;14.40;13.40;;;24.00;78.10;;;;;;5077515;28;20467;-88
2022/05/09 06:27:28;;;;;;;13.40;12.40;;;24.30;76.30;;;;;;5076228;28;20474;-89
2022/05/09 06:29:55;;;;;;;13.83;12.93;;;24.40;75.20;;;;;;5075896;28;20455;-88
2022/05/09 06:32:25;;;;;;;12.67;11.77;;;24.60;74.40;;;;;;5075719;28;20962;-89
2022/05/09 06:34:53;;;;;;;14.47;13.33;;;24.70;73.10;;;;;;5091506;28;20463;-89
2022/05/09 06:37:20;;;;;;;14.67;13.20;;;24.90;72.80;;;;;;5081963;28;20448;-89
2022/05/09 06:39:47;;;;;;;12.57;11.53;;;25.20;72.30;;;;;;5077322;28;20453;-89
2022/05/09 06:42:15;;;;;;;13.43;12.43;;;25.60;70.60;;;;;;5086457;28;20480;-89
2022/05/09 06:44:42;;;;;;;14.57;13.33;;;26.00;68.90;;;;;;5101675;28;20465;-88
2022/05/09 06:47:11;;;;;;;12.53;11.43;;;25.90;67.10;;;;;;5082068;28;20467;-89
2022/05/09 06:49:38;;;;;;;12.20;11.23;;;26.00;67.10;;;;;;5087145;28;20451;-84
2022/05/09 06:52:05;;;;;;;12.30;11.30;;;26.20;65.80;;;;;;5093729;28;20454;-89
2022/05/09 06:54:32;;;;;;;11.53;10.73;;;26.50;65.30;;;;;;5096882;28;20462;-89
2022/05/09 06:56:59;;;;;;;11.50;10.70;;;26.50;63.90;;;;;;5093525;28;20437;-88
2022/05/09 06:59:27;;;;;;;12.17;10.97;;;26.50;63.60;;;;;;5094523;28;20499;-89
2022/05/09 07:01:53;;;;;;;9.90;9.20;;;25.80;64.60;;;;;;5075372;28;20844;-88
2022/05/09 07:04:21;;;;;;;9.53;8.83;;;24.80;66.40;;;;;;5074924;28;20513;-89
2022/05/09 07:06:48;;;;;;;11.40;10.47;;;25.50;66.00;;;;;;5075024;28;21035;-89
2022/05/09 07:09:15;;;;;;;9.13;8.53;;;26.00;64.80;;;;;;5074029;28;20453;-89
2022/05/09 07:11:42;;;;;;;10.30;9.50;;;26.30;63.00;;;;;;5076682;28;20447;-90
2022/05/09 07:14:09;;;;;;;10.77;9.90;;;26.60;62.60;;;;;;5075215;28;20531;-90
2022/05/09 07:16:38;;;;;;;10.13;9.33;;;26.20;62.70;;;;;;5073919;28;20846;-89
2022/05/09 07:19:05;;;;;;;9.80;9.10;;;26.70;62.00;;;;;;5074544;28;20447;-89
2022/05/09 07:21:32;;;;;;;9.40;8.67;;;27.40;60.00;;;;;;5074943;28;20475;-90
2022/05/09 07:24:00;;;;;;;10.07;9.33;;;28.10;58.50;;;;;;5075014;28;20905;-90
2022/05/09 07:26:26;;;;;;;9.93;9.13;;;27.10;58.80;;;;;;5074814;28;20944;-89
2022/05/09 07:28:53;;;;;;;9.30;8.50;;;26.80;59.30;;;;;;5075927;28;20522;-90
2022/05/09 07:31:20;;;;;;;9.20;8.43;;;27.40;59.00;;;;;;5091681;28;20456;-89
2022/05/09 07:33:48;;;;;;;8.90;8.20;;;27.50;58.00;;;;;;5087557;28;20983;-89
2022/05/09 07:36:14;;;;;;;10.00;9.00;;;27.20;58.40;;;;;;5078231;28;20443;-89
2022/05/09 07:38:42;;;;;;;9.70;8.90;;;27.30;58.50;;;;;;5077343;28;20534;-90
2022/05/09 07:41:08;;;;;;;9.80;8.97;;;27.40;58.40;;;;;;5075215;28;20451;-89
2022/05/09 07:43:35;;;;;;;9.80;9.00;;;27.20;58.60;;;;;;5075324;28;20487;-89
2022/05/09 07:46:02;;;;;;;9.60;8.80;;;27.50;57.80;;;;;;5076407;28;20447;-89
2022/05/09 07:48:29;;;;;;;10.83;9.87;;;27.40;58.10;;;;;;5077396;28;20440;-89
2022/05/09 07:51:00;;;;;;;9.93;9.13;;;28.40;57.00;;;;;;5094484;28;20932;-88
2022/05/09 07:53:30;;;;;;;8.50;7.80;;;28.30;56.50;;;;;;5095060;28;20577;-88
2022/05/09 07:55:57;;;;;;;9.23;8.53;;;28.40;56.20;;;;;;5086840;28;20454;-88
2022/05/09 07:58:25;;;;;;;8.70;8.10;;;27.90;56.40;;;;;;5077592;28;20443;-92
2022/05/09 08:00:58;;;;;;;9.10;8.30;;;28.10;56.70;;;;;;5075608;28;20450;-86
2022/05/09 08:03:25;;;;;;;8.40;7.80;;;28.10;56.40;;;;;;5086131;28;20489;-85
2022/05/09 08:05:53;;;;;;;8.93;8.23;;;28.70;55.70;;;;;;5084753;28;20739;-84
2022/05/09 08:08:21;;;;;;;9.23;7.80;;;29.00;55.20;;;;;;5074606;28;20459;-85
2022/05/09 08:10:48;;;;;;;10.17;8.03;;;29.20;54.70;;;;;;5075750;28;20451;-85
2022/05/09 08:13:17;;;;;;;8.83;8.23;;;29.50;54.10;;;;;;5087287;28;20497;-84
2022/05/09 08:15:46;;;;;;;8.73;8.03;;;29.90;53.40;;;;;;5091535;28;20447;-85
2022/05/09 08:18:13;;;;;;;8.87;8.13;;;29.50;53.70;;;;;;5080173;28;20864;-85
2022/05/09 08:20:43;;;;;;;8.47;7.77;;;29.70;54.00;;;;;;5077249;28;20455;-85
2022/05/09 08:23:12;;;;;;;8.77;8.10;;;30.90;53.00;;;;;;5082748;28;20475;-85
2022/05/09 08:25:44;;;;;;;8.30;7.80;;;32.00;51.30;;;;;;5083348;28;20451;-85
2022/05/09 08:28:11;;;;;;;8.40;7.70;;;32.90;49.10;;;;;;5094677;28;20443;-85
2022/05/09 08:30:38;;;;;;;8.97;8.43;;;32.00;49.60;;;;;;5075532;28;20832;-84
2022/05/09 08:33:09;;;;;;;8.10;7.40;;;31.20;50.20;;;;;;5073460;28;20463;-84
2022/05/09 08:35:37;;;;;;;7.47;6.97;;;31.80;50.30;;;;;;5074029;28;20467;-84
2022/05/09 08:38:03;;;;;;;7.27;6.67;;;32.30;49.70;;;;;;5076928;28;20474;-85
2022/05/09 08:40:35;;;;;;;8.77;8.10;;;32.10;49.20;;;;;;5089520;28;20432;-85
2022/05/09 08:43:15;;;;;;;8.00;7.40;;;32.50;49.30;;;;;;5095284;28;20469;-84
2022/05/09 08:45:47;;;;;;;8.90;8.30;;;32.20;48.40;;;;;;5087490;28;20447;-85
2022/05/09 08:48:32;;;;;;;8.80;8.00;;;32.40;48.60;;;;;;5070542;28;20481;-85
2022/05/09 08:51:14;;;;;;;6.77;6.37;;;31.50;49.60;;;;;;5073697;28;21158;-85
2022/05/09 08:53:45;;;;;;;7.60;7.00;;;32.70;48.20;;;;;;5091815;28;20509;-85
2022/05/09 08:56:15;;;;;;;7.83;7.23;;;33.90;46.60;;;;;;5088632;28;20789;-86
2022/05/09 08:58:49;;;;;;;7.93;7.33;;;35.10;44.10;;;;;;5083251;28;20438;-87
2022/05/09 09:01:18;;;;;;;7.33;6.73;;;35.80;42.90;;;;;;5071328;28;20892;-89
2022/05/09 09:03:53;;;;;;;8.23;7.53;;;35.60;42.60;;;;;;5078177;28;20487;-88
2022/05/09 09:06:37;;;;;;;8.47;7.87;;;32.90;45.30;;;;;;5084005;28;20957;-88
2022/05/09 09:09:12;;;;;;;7.43;6.93;;;33.30;46.00;;;;;;5080474;28;20507;-87
2022/05/09 09:11:50;;;;;;;8.27;7.67;;;34.30;44.40;;;;;;5084218;28;20475;-89
2022/05/09 09:14:28;;;;;;;7.97;7.37;;;35.50;43.20;;;;;;5071547;28;20474;-89
2022/05/09 09:17:10;;;;;;;8.23;7.40;;;36.40;41.30;;;;;;5069850;28;20437;-89
2022/05/09 09:19:53;;;;;;;8.60;6.93;;;36.00;41.70;;;;;;5072612;28;20447;-89
2022/05/09 09:22:34;;;;;;;8.43;7.67;;;35.30;41.60;;;;;;5072280;28;20436;-89
2022/05/09 09:25:16;;;;;;;7.43;6.77;;;35.20;41.70;;;;;;5074119;28;20462;-89
2022/05/09 09:27:47;;;;;;;8.33;7.53;;;35.90;42.30;;;;;;5072150;28;20439;-90
2022/05/09 09:30:21;;;;;;;9.07;8.27;;;35.20;42.50;;;;;;5068908;28;20440;-89
2022/05/09 09:32:54;;;;;;;7.87;7.27;;;35.90;41.90;;;;;;5068566;28;20471;-90
2022/05/09 09:35:31;;;;;;;7.00;6.30;;;36.20;41.10;;;;;;5068408;28;20478;-89
2022/05/09 09:38:06;;;;;;;6.47;6.07;;;36.90;40.80;;;;;;5069654;28;20443;-89
2022/05/09 09:40:36;;;;;;;7.03;6.30;;;37.30;39.40;;;;;;5069829;28;20534;-91
2022/05/09 09:43:03;;;;;;;6.50;5.90;;;36.80;40.30;;;;;;5069992;28;20499;-89
2022/05/09 09:45:35;;;;;;;7.30;6.80;;;36.00;39.50;;;;;;5069167;28;20471;-88
2022/05/09 09:48:14;;;;;;;7.27;6.70;;;33.30;41.80;;;;;;5074511;28;20442;-88
2022/05/09 09:50:53;;;;;;;7.00;6.53;;;31.90;43.30;;;;;;5079624;28;20451;-89
2022/05/09 09:53:37;;;;;;;6.53;6.03;;;32.60;43.70;;;;;;5073755;28;20478;-89
2022/05/09 09:56:27;;;;;;;7.23;6.60;;;33.00;43.10;;;;;;5069878;28;20975;-89
2022/05/09 09:58:58;;;;;;;6.90;6.40;;;32.60;43.90;;;;;;5074083;28;20959;-89
2022/05/09 10:01:34;;;;;;;6.63;6.07;;;33.30;43.20;;;;;;5076139;28;20444;-89
2022/05/09 10:04:06;;;;;;;6.97;6.43;;;34.00;42.70;;;;;;5094667;28;20455;-89
2022/05/09 10:06:33;;;;;;;6.13;5.67;;;34.60;40.90;;;;;;5086975;28;20447;-89
2022/05/09 10:09:04;;;;;;;6.90;6.30;;;34.10;41.10;;;;;;5073335;28;20485;-89
2022/05/09 10:11:32;;;;;;;5.93;5.43;;;33.70;41.30;;;;;;5067106;28;20436;-89
2022/05/09 10:14:01;;;;;;;6.40;5.80;;;33.50;42.40;;;;;;5089426;28;20474;-89
2022/05/09 10:16:33;;;;;;;6.47;6.07;;;34.60;41.20;;;;;;5080859;28;20447;-89
2022/05/09 10:19:01;;;;;;;7.10;6.50;;;33.40;41.90;;;;;;5089902;28;20504;-87
2022/05/09 10:24:51;;;;;;;6.77;6.30;;;31.60;44.00;;;;;;5003844;28;21061;-88
2022/05/09 10:27:28;;;;;;;7.20;6.70;;;30.50;45.60;;;;;;5006594;28;20517;-88
2022/05/09 10:29:56;;;;;;;7.20;6.60;;;30.50;45.90;;;;;;5069449;28;20428;-88
2022/05/09 10:32:30;;;;;;;6.60;6.10;;;30.10;46.30;;;;;;5081085;28;20440;-89
2022/05/09 10:35:02;;;;;;;6.50;6.00;;;30.20;47.70;;;;;;5081400;28;20463;-89
2022/05/09 10:37:38;;;;;;;7.63;7.03;;;31.80;44.90;;;;;;5077122;28;20497;-88
2022/05/09 10:40:10;;;;;;;8.13;6.30;;;31.90;45.80;;;;;;5077946;28;20450;-88
2022/05/09 10:42:43;;;;;;;6.40;5.73;;;32.90;42.50;;;;;;5082441;28;20511;-89
2022/05/09 10:45:18;;;;;;;7.47;6.87;;;33.60;41.50;;;;;;5091807;28;20471;-88
2022/05/09 10:47:53;;;;;;;6.83;6.33;;;33.90;41.10;;;;;;5088694;28;20447;-89
2022/05/09 10:50:25;;;;;;;6.53;6.10;;;33.40;42.20;;;;;;5078808;28;20426;-89
2022/05/09 10:53:03;;;;;;;6.93;6.33;;;34.00;40.90;;;;;;5086640;28;20447;-89
2022/05/09 10:55:36;;;;;;;6.77;6.20;;;35.50;40.00;;;;;;5095565;28;20459;-88
2022/05/09 10:58:06;;;;;;;5.57;5.07;;;37.60;38.30;;;;;;5089707;28;20452;-89
2022/05/09 11:00:36;;;;;;;5.70;5.30;;;36.80;35.80;;;;;;5079520;28;20444;-88
2022/05/09 11:03:17;;;;;;;6.40;5.90;;;36.60;37.00;;;;;;5073821;28;20440;-88
2022/05/09 11:06:03;;;;;;;7.27;6.60;;;35.50;38.30;;;;;;5077504;28;20439;-88
2022/05/09 11:08:39;;;;;;;5.90;5.40;;;34.70;39.60;;;;;;5073145;28;20870;-89
2022/05/09 11:11:15;;;;;;;6.50;6.00;;;36.60;37.70;;;;;;5073434;28;20498;-89
2022/05/09 11:13:53;;;;;;;6.60;6.10;;;38.00;36.80;;;;;;5076635;28;20485;-89
2022/05/09 11:16:29;;;;;;;5.97;5.47;;;38.50;35.60;;;;;;5071827;28;20458;-90
2022/05/09 11:19:34;;;;;;;6.60;6.20;;;38.00;36.30;;;;;;5075291;28;20451;-89
2022/05/09 11:22:12;;;;;;;5.90;5.50;;;38.40;36.10;;;;;;5068962;28;20451;-90
2022/05/09 11:24:56;;;;;;;6.63;6.13;;;38.60;35.00;;;;;;5074528;28;20980;-89
2022/05/09 11:27:33;;;;;;;6.67;6.20;;;39.10;34.30;;;;;;5088906;28;20443;-89
2022/05/09 11:30:16;;;;;;;5.83;5.43;;;40.00;33.70;;;;;;5095111;28;20447;-89
2022/05/09 11:32:46;;;;;;;5.60;5.20;;;39.30;32.50;;;;;;5075196;28;21019;-83
2022/05/09 11:35:31;;;;;;;4.90;4.60;;;37.70;33.60;;;;;;5074189;28;20524;-89
2022/05/09 11:38:20;;;;;;;6.43;6.03;;;38.00;34.20;;;;;;5073860;28;20446;-89
2022/05/09 11:40:56;;;;;;;6.30;5.80;;;36.20;36.20;;;;;;5097775;28;20471;-90
2022/05/09 11:43:37;;;;;;;5.30;4.83;;;35.00;37.10;;;;;;5087503;28;20444;-90
2022/05/09 11:46:24;;;;;;;6.10;5.60;;;35.00;37.30;;;;;;5077799;28;20454;-90
2022/05/09 11:49:03;;;;;;;5.60;5.20;;;37.20;34.90;;;;;;5082959;28;20478;-90
2022/05/09 11:51:40;;;;;;;6.00;5.50;;;38.00;34.20;;;;;;5083811;28;20444;-90
2022/05/09 11:54:09;;;;;;;5.73;5.23;;;36.90;34.30;;;;;;5075926;28;20863;-90
2022/05/09 11:56:38;;;;;;;6.50;5.90;;;35.20;36.00;;;;;;5069324;28;20447;-89
2022/05/09 11:59:06;;;;;;;6.17;5.67;;;34.10;37.10;;;;;;5072535;28;20443;-89
2022/05/09 12:02:03;;;;;;;6.57;5.97;;;32.10;39.50;;;;;;5073822;28;20481;-89
2022/05/09 12:04:41;;;;;;;6.43;5.83;;;30.30;42.20;;;;;;5071645;28;20463;-89
2022/05/09 12:07:49;;;;;;;6.33;5.87;;;29.50;43.30;;;;;;5070377;28;20490;-89
2022/05/09 12:10:28;;;;;;;6.60;6.10;;;30.30;43.00;;;;;;5040564;28;20943;-89
2022/05/09 12:12:57;;;;;;;5.73;5.30;;;30.50;42.20;;;;;;5073120;28;20970;-89
2022/05/09 12:15:51;;;;;;;11.70;5.67;;;31.70;41.30;;;;;;5070916;28;20495;-89
2022/05/09 12:18:25;;;;;;;5.97;5.57;;;33.20;38.80;;;;;;5071300;28;20444;-89
2022/05/09 12:21:10;;;;;;;6.00;5.50;;;34.40;37.30;;;;;;5071660;28;20447;-89
2022/05/09 12:24:16;;;;;;;5.53;5.03;;;36.20;35.60;;;;;;5072345;28;20463;-87
2022/05/09 12:26:46;;;;;;;6.63;5.97;;;34.90;36.10;;;;;;5059564;28;20447;-89
2022/05/09 12:29:48;;;;;;;6.40;6.00;;;34.40;37.10;;;;;;5070668;28;20469;-89
2022/05/09 12:32:17;;;;;;;8.27;5.77;;;35.50;37.10;;;;;;5069382;28;20556;-89
2022/05/09 12:34:47;;;;;;;5.53;5.13;;;35.20;36.90;;;;;;5071405;28;20902;-89
2022/05/09 12:37:22;;;;;;;5.50;5.10;;;35.50;35.40;;;;;;5072003;28;20435;-89
2022/05/09 12:39:52;;;;;;;6.13;5.20;;;34.30;36.60;;;;;;5072168;28;20435;-89
2022/05/09 12:42:34;;;;;;;6.27;5.87;;;32.30;38.80;;;;;;5081245;28;20489;-89
2022/05/09 12:45:04;;;;;;;6.87;5.93;;;31.30;40.20;;;;;;5087054;28;20443;-89
2022/05/09 12:47:35;;;;;;;5.97;5.47;;;31.70;41.30;;;;;;5089723;28;20438;-89
2022/05/09 12:50:06;;;;;;;7.67;5.27;;;32.60;39.40;;;;;;5088136;28;20442;-89
2022/05/09 12:52:36;;;;;;;6.00;5.50;;;33.10;38.80;;;;;;5073790;28;20439;-89
2022/05/09 12:57:50;;;;;;;5.90;5.40;;;34.80;36.90;;;;;;5074259;28;20792;-89
2022/05/09 13:00:20;;;;;;;6.57;5.53;;;35.00;36.90;;;;;;5075968;28;20826;-89
2022/05/09 13:02:47;;;;;;;6.03;5.63;;;35.60;35.90;;;;;;5071359;28;20447;-89
2022/05/09 13:05:16;;;;;;;5.97;5.57;;;35.20;35.70;;;;;;5072605;28;20451;-89
2022/05/09 13:07:59;;;;;;;6.00;5.50;;;35.10;35.90;;;;;;5072102;28;20451;-89